sensor_id;sensor_type;location;lat;lon;timestamp;P1;durP1;ratioP1;P2;durP2;ratioP2
11090;SDS011;5599;52.210;21.046;2022-10-26T00:00:24;17.50;;;15.70;;
11090;SDS011;5599;52.210;21.046;2022-10-26T00:02:54;17.53;;;15.73;;
11090;SDS011;5599;52.210;21.046;2022-10-26T00:05:25;19.20;;;15.10;;
11090;SDS011;5599;52.210;21.046;2022-10-26T00:07:54;19.20;;;16.40;;
11090;SDS011;5599;52.210;21.046;2022-10-26T00:10:23;19.60;;;16.40;;
11090;SDS011;5599;52.210;21.046;2022-10-26T00:12:56;20.27;;;16.07;;
11090;SDS011;5599;52.210;21.046;2022-10-26T00:15:25;17.83;;;15.87;;
11090;SDS011;5599;52.210;21.046;2022-10-26T00:17:55;17.90;;;16.00;;
11090;SDS011;5599;52.210;21.046;2022-10-26T00:20:25;17.17;;;15.37;;
11090;SDS011;5599;52.210;21.046;2022-10-26T00:22:54;19.43;;;15.83;;
11090;SDS011;5599;52.210;21.046;2022-10-26T00:25:24;17.43;;;15.70;;
11090;SDS011;5599;52.210;21.046;2022-10-26T00:27:53;16.63;;;15.03;;
11090;SDS011;5599;52.210;21.046;2022-10-26T00:30:22;17.83;;;15.97;;
11090;SDS011;5599;52.210;21.046;2022-10-26T00:32:51;18.67;;;16.67;;
11090;SDS011;5599;52.210;21.046;2022-10-26T00:35:20;18.20;;;16.57;;
11090;SDS011;5599;52.210;21.046;2022-10-26T00:38:11;18.53;;;16.63;;
11090;SDS011;5599;52.210;21.046;2022-10-26T00:40:40;19.83;;;17.67;;
11090;SDS011;5599;52.210;21.046;2022-10-26T00:43:13;20.00;;;17.90;;
11090;SDS011;5599;52.210;21.046;2022-10-26T00:45:44;19.57;;;17.73;;
11090;SDS011;5599;52.210;21.046;2022-10-26T00:48:15;19.47;;;17.57;;
11090;SDS011;5599;52.210;21.046;2022-10-26T00:50:50;18.40;;;16.50;;
11090;SDS011;5599;52.210;21.046;2022-10-26T00:53:22;19.17;;;17.27;;
11090;SDS011;5599;52.210;21.046;2022-10-26T00:55:52;19.80;;;17.80;;
11090;SDS011;5599;52.210;21.046;2022-10-26T00:58:22;19.70;;;17.63;;
11090;SDS011;5599;52.210;21.046;2022-10-26T01:00:53;20.33;;;18.33;;
11090;SDS011;5599;52.210;21.046;2022-10-26T01:03:22;19.17;;;17.13;;
11090;SDS011;5599;52.210;21.046;2022-10-26T01:05:52;19.97;;;17.87;;
11090;SDS011;5599;52.210;21.046;2022-10-26T01:08:26;20.77;;;17.33;;
11090;SDS011;5599;52.210;21.046;2022-10-26T01:10:56;22.90;;;17.80;;
11090;SDS011;5599;52.210;21.046;2022-10-26T01:13:27;19.37;;;17.40;;
11090;SDS011;5599;52.210;21.046;2022-10-26T01:16:05;21.47;;;18.93;;
11090;SDS011;5599;52.210;21.046;2022-10-26T01:18:46;20.10;;;18.03;;
11090;SDS011;5599;52.210;21.046;2022-10-26T01:21:38;19.93;;;18.03;;
11090;SDS011;5599;52.210;21.046;2022-10-26T01:24:26;20.40;;;17.37;;
11090;SDS011;5599;52.210;21.046;2022-10-26T01:27:19;19.30;;;17.27;;
11090;SDS011;5599;52.210;21.046;2022-10-26T01:32:54;19.50;;;17.53;;
11090;SDS011;5599;52.210;21.046;2022-10-26T01:35:38;19.63;;;17.53;;
11090;SDS011;5599;52.210;21.046;2022-10-26T01:38:15;19.77;;;17.87;;
11090;SDS011;5599;52.210;21.046;2022-10-26T01:40:52;19.70;;;17.53;;
11090;SDS011;5599;52.210;21.046;2022-10-26T01:43:26;19.53;;;17.37;;
11090;SDS011;5599;52.210;21.046;2022-10-26T01:46:01;19.80;;;17.83;;
11090;SDS011;5599;52.210;21.046;2022-10-26T01:48:33;19.40;;;17.43;;
11090;SDS011;5599;52.210;21.046;2022-10-26T01:51:03;20.47;;;18.30;;
11090;SDS011;5599;52.210;21.046;2022-10-26T01:53:35;20.10;;;17.90;;
11090;SDS011;5599;52.210;21.046;2022-10-26T01:56:09;19.67;;;17.60;;
11090;SDS011;5599;52.210;21.046;2022-10-26T02:02:07;19.00;;;17.10;;
11090;SDS011;5599;52.210;21.046;2022-10-26T02:04:54;19.17;;;17.20;;
11090;SDS011;5599;52.210;21.046;2022-10-26T02:07:39;19.13;;;17.13;;
11090;SDS011;5599;52.210;21.046;2022-10-26T02:10:18;20.37;;;16.57;;
11090;SDS011;5599;52.210;21.046;2022-10-26T02:12:59;19.77;;;17.77;;
11090;SDS011;5599;52.210;21.046;2022-10-26T02:15:37;20.33;;;18.33;;
11090;SDS011;5599;52.210;21.046;2022-10-26T02:18:17;22.27;;;20.07;;
11090;SDS011;5599;52.210;21.046;2022-10-26T02:20:58;23.50;;;21.07;;
11090;SDS011;5599;52.210;21.046;2022-10-26T02:23:33;23.70;;;21.20;;
11090;SDS011;5599;52.210;21.046;2022-10-26T02:26:05;24.93;;;22.43;;
11090;SDS011;5599;52.210;21.046;2022-10-26T02:28:38;24.83;;;22.07;;
11090;SDS011;5599;52.210;21.046;2022-10-26T02:31:11;25.33;;;22.67;;
11090;SDS011;5599;52.210;21.046;2022-10-26T02:33:44;24.67;;;22.17;;
11090;SDS011;5599;52.210;21.046;2022-10-26T02:36:17;23.80;;;21.30;;
11090;SDS011;5599;52.210;21.046;2022-10-26T02:38:50;26.10;;;22.67;;
11090;SDS011;5599;52.210;21.046;2022-10-26T02:41:21;24.60;;;22.07;;
11090;SDS011;5599;52.210;21.046;2022-10-26T02:43:55;22.47;;;20.27;;
11090;SDS011;5599;52.210;21.046;2022-10-26T02:46:27;22.53;;;20.07;;
11090;SDS011;5599;52.210;21.046;2022-10-26T02:48:59;22.93;;;20.60;;
11090;SDS011;5599;52.210;21.046;2022-10-26T02:51:29;22.40;;;20.07;;
11090;SDS011;5599;52.210;21.046;2022-10-26T02:54:06;23.60;;;19.70;;
11090;SDS011;5599;52.210;21.046;2022-10-26T02:56:41;23.87;;;18.80;;
11090;SDS011;5599;52.210;21.046;2022-10-26T02:59:16;23.13;;;20.57;;
11090;SDS011;5599;52.210;21.046;2022-10-26T03:01:49;21.13;;;19.13;;
11090;SDS011;5599;52.210;21.046;2022-10-26T03:04:20;21.73;;;19.57;;
11090;SDS011;5599;52.210;21.046;2022-10-26T03:06:56;20.73;;;18.53;;
11090;SDS011;5599;52.210;21.046;2022-10-26T03:09:25;20.80;;;18.60;;
11090;SDS011;5599;52.210;21.046;2022-10-26T03:11:55;21.17;;;18.67;;
11090;SDS011;5599;52.210;21.046;2022-10-26T03:14:24;20.67;;;18.57;;
11090;SDS011;5599;52.210;21.046;2022-10-26T03:16:53;20.17;;;18.10;;
11090;SDS011;5599;52.210;21.046;2022-10-26T03:19:24;22.13;;;18.17;;
11090;SDS011;5599;52.210;21.046;2022-10-26T03:21:53;27.07;;;19.37;;
11090;SDS011;5599;52.210;21.046;2022-10-26T03:24:22;21.10;;;18.57;;
11090;SDS011;5599;52.210;21.046;2022-10-26T03:26:51;21.33;;;18.67;;
11090;SDS011;5599;52.210;21.046;2022-10-26T03:29:25;22.67;;;18.77;;
11090;SDS011;5599;52.210;21.046;2022-10-26T03:31:54;24.57;;;19.87;;
11090;SDS011;5599;52.210;21.046;2022-10-26T03:34:25;22.90;;;20.53;;
11090;SDS011;5599;52.210;21.046;2022-10-26T03:36:54;23.57;;;21.00;;
11090;SDS011;5599;52.210;21.046;2022-10-26T03:39:23;24.00;;;20.50;;
11090;SDS011;5599;52.210;21.046;2022-10-26T03:41:52;22.93;;;20.67;;
11090;SDS011;5599;52.210;21.046;2022-10-26T03:44:22;22.87;;;20.43;;
11090;SDS011;5599;52.210;21.046;2022-10-26T03:46:51;22.97;;;20.60;;
11090;SDS011;5599;52.210;21.046;2022-10-26T03:49:20;23.63;;;21.13;;
11090;SDS011;5599;52.210;21.046;2022-10-26T03:51:51;23.77;;;21.27;;
11090;SDS011;5599;52.210;21.046;2022-10-26T03:54:20;23.40;;;20.50;;
11090;SDS011;5599;52.210;21.046;2022-10-26T03:56:49;23.80;;;20.33;;
11090;SDS011;5599;52.210;21.046;2022-10-26T03:59:21;24.30;;;21.17;;
11090;SDS011;5599;52.210;21.046;2022-10-26T04:01:50;25.23;;;20.57;;
11090;SDS011;5599;52.210;21.046;2022-10-26T04:04:23;22.53;;;20.13;;
11090;SDS011;5599;52.210;21.046;2022-10-26T04:06:54;23.20;;;20.93;;
11090;SDS011;5599;52.210;21.046;2022-10-26T04:09:23;27.43;;;21.07;;
11090;SDS011;5599;52.210;21.046;2022-10-26T04:11:52;23.77;;;21.27;;
11090;SDS011;5599;52.210;21.046;2022-10-26T04:14:21;23.97;;;20.10;;
11090;SDS011;5599;52.210;21.046;2022-10-26T04:16:50;24.87;;;20.27;;
11090;SDS011;5599;52.210;21.046;2022-10-26T04:19:20;23.40;;;21.00;;
11090;SDS011;5599;52.210;21.046;2022-10-26T04:21:49;29.07;;;22.63;;
11090;SDS011;5599;52.210;21.046;2022-10-26T04:24:20;26.70;;;23.23;;
11090;SDS011;5599;52.210;21.046;2022-10-26T04:26:49;26.40;;;22.53;;
11090;SDS011;5599;52.210;21.046;2022-10-26T04:29:18;23.67;;;20.97;;
11090;SDS011;5599;52.210;21.046;2022-10-26T04:31:47;24.60;;;22.00;;
11090;SDS011;5599;52.210;21.046;2022-10-26T04:34:16;25.43;;;22.67;;
11090;SDS011;5599;52.210;21.046;2022-10-26T04:36:45;24.27;;;21.60;;
11090;SDS011;5599;52.210;21.046;2022-10-26T04:39:14;23.80;;;21.30;;
11090;SDS011;5599;52.210;21.046;2022-10-26T04:41:45;22.07;;;19.37;;
11090;SDS011;5599;52.210;21.046;2022-10-26T04:44:14;24.50;;;21.90;;
11090;SDS011;5599;52.210;21.046;2022-10-26T04:46:43;24.00;;;21.30;;
11090;SDS011;5599;52.210;21.046;2022-10-26T04:49:14;24.13;;;21.53;;
11090;SDS011;5599;52.210;21.046;2022-10-26T04:51:43;23.87;;;21.57;;
11090;SDS011;5599;52.210;21.046;2022-10-26T04:54:12;24.23;;;21.63;;
11090;SDS011;5599;52.210;21.046;2022-10-26T04:56:41;23.87;;;21.43;;
11090;SDS011;5599;52.210;21.046;2022-10-26T04:59:17;24.30;;;21.63;;
11090;SDS011;5599;52.210;21.046;2022-10-26T05:01:46;27.13;;;21.20;;
11090;SDS011;5599;52.210;21.046;2022-10-26T05:04:15;22.83;;;20.50;;
11090;SDS011;5599;52.210;21.046;2022-10-26T05:06:44;22.17;;;19.97;;
11090;SDS011;5599;52.210;21.046;2022-10-26T05:09:14;23.07;;;20.87;;
11090;SDS011;5599;52.210;21.046;2022-10-26T05:11:43;25.73;;;22.33;;
11090;SDS011;5599;52.210;21.046;2022-10-26T05:14:12;23.37;;;20.87;;
11090;SDS011;5599;52.210;21.046;2022-10-26T05:16:43;24.63;;;21.77;;
11090;SDS011;5599;52.210;21.046;2022-10-26T05:19:12;23.37;;;20.90;;
11090;SDS011;5599;52.210;21.046;2022-10-26T05:21:41;23.77;;;21.33;;
11090;SDS011;5599;52.210;21.046;2022-10-26T05:24:16;24.83;;;22.33;;
11090;SDS011;5599;52.210;21.046;2022-10-26T05:26:45;24.37;;;21.77;;
11090;SDS011;5599;52.210;21.046;2022-10-26T05:29:14;24.73;;;21.37;;
11090;SDS011;5599;52.210;21.046;2022-10-26T05:31:45;26.23;;;22.17;;
11090;SDS011;5599;52.210;21.046;2022-10-26T05:34:14;24.57;;;21.97;;
11090;SDS011;5599;52.210;21.046;2022-10-26T05:36:43;24.13;;;20.97;;
11090;SDS011;5599;52.210;21.046;2022-10-26T05:39:13;23.83;;;21.33;;
11090;SDS011;5599;52.210;21.046;2022-10-26T05:41:42;29.20;;;21.17;;
11090;SDS011;5599;52.210;21.046;2022-10-26T05:44:11;20.90;;;18.63;;
11090;SDS011;5599;52.210;21.046;2022-10-26T05:46:40;22.07;;;18.63;;
11090;SDS011;5599;52.210;21.046;2022-10-26T05:49:11;21.40;;;18.93;;
11090;SDS011;5599;52.210;21.046;2022-10-26T05:51:41;25.57;;;19.43;;
11090;SDS011;5599;52.210;21.046;2022-10-26T05:54:11;20.63;;;18.23;;
11090;SDS011;5599;52.210;21.046;2022-10-26T05:56:40;21.73;;;18.93;;
11090;SDS011;5599;52.210;21.046;2022-10-26T05:59:11;24.77;;;18.93;;
11090;SDS011;5599;52.210;21.046;2022-10-26T06:01:53;21.03;;;17.83;;
11090;SDS011;5599;52.210;21.046;2022-10-26T06:04:34;18.80;;;16.80;;
11090;SDS011;5599;52.210;21.046;2022-10-26T06:07:09;21.23;;;17.70;;
11090;SDS011;5599;52.210;21.046;2022-10-26T06:09:40;17.43;;;15.57;;
11090;SDS011;5599;52.210;21.046;2022-10-26T06:12:11;20.47;;;17.17;;
11090;SDS011;5599;52.210;21.046;2022-10-26T06:14:46;17.30;;;15.50;;
11090;SDS011;5599;52.210;21.046;2022-10-26T06:17:20;17.77;;;15.27;;
11090;SDS011;5599;52.210;21.046;2022-10-26T06:23:08;20.37;;;15.07;;
11090;SDS011;5599;52.210;21.046;2022-10-26T06:25:48;19.53;;;15.43;;
11090;SDS011;5599;52.210;21.046;2022-10-26T06:28:30;19.93;;;16.57;;
11090;SDS011;5599;52.210;21.046;2022-10-26T06:31:07;21.13;;;16.10;;
11090;SDS011;5599;52.210;21.046;2022-10-26T06:33:37;17.20;;;15.40;;
11090;SDS011;5599;52.210;21.046;2022-10-26T06:36:12;21.20;;;15.83;;
11090;SDS011;5599;52.210;21.046;2022-10-26T06:38:51;20.00;;;15.30;;
11090;SDS011;5599;52.210;21.046;2022-10-26T06:41:24;21.07;;;15.27;;
11090;SDS011;5599;52.210;21.046;2022-10-26T06:43:54;16.93;;;13.90;;
11090;SDS011;5599;52.210;21.046;2022-10-26T06:46:27;19.03;;;14.73;;
11090;SDS011;5599;52.210;21.046;2022-10-26T06:49:06;17.27;;;14.67;;
11090;SDS011;5599;52.210;21.046;2022-10-26T06:51:46;16.77;;;13.43;;
11090;SDS011;5599;52.210;21.046;2022-10-26T06:54:22;18.17;;;14.37;;
11090;SDS011;5599;52.210;21.046;2022-10-26T06:56:58;16.07;;;13.30;;
11090;SDS011;5599;52.210;21.046;2022-10-26T06:59:31;15.67;;;13.77;;
11090;SDS011;5599;52.210;21.046;2022-10-26T07:02:07;17.20;;;13.03;;
11090;SDS011;5599;52.210;21.046;2022-10-26T07:04:37;17.80;;;12.30;;
11090;SDS011;5599;52.210;21.046;2022-10-26T07:07:09;26.17;;;14.97;;
11090;SDS011;5599;52.210;21.046;2022-10-26T07:09:41;20.50;;;13.90;;
11090;SDS011;5599;52.210;21.046;2022-10-26T07:12:10;19.37;;;14.20;;
11090;SDS011;5599;52.210;21.046;2022-10-26T07:14:39;20.00;;;13.77;;
11090;SDS011;5599;52.210;21.046;2022-10-26T07:17:09;20.40;;;14.27;;
11090;SDS011;5599;52.210;21.046;2022-10-26T07:19:38;15.10;;;13.13;;
11090;SDS011;5599;52.210;21.046;2022-10-26T07:22:12;18.47;;;14.20;;
11090;SDS011;5599;52.210;21.046;2022-10-26T07:24:41;16.73;;;13.83;;
11090;SDS011;5599;52.210;21.046;2022-10-26T07:27:11;17.73;;;14.20;;
11090;SDS011;5599;52.210;21.046;2022-10-26T07:29:40;17.77;;;15.20;;
11090;SDS011;5599;52.210;21.046;2022-10-26T07:32:10;27.63;;;20.83;;
11090;SDS011;5599;52.210;21.046;2022-10-26T07:34:39;19.17;;;16.93;;
11090;SDS011;5599;52.210;21.046;2022-10-26T07:37:08;29.70;;;16.53;;
11090;SDS011;5599;52.210;21.046;2022-10-26T07:39:40;23.50;;;15.73;;
11090;SDS011;5599;52.210;21.046;2022-10-26T07:42:09;19.57;;;15.17;;
11090;SDS011;5599;52.210;21.046;2022-10-26T07:44:39;18.97;;;15.00;;
11090;SDS011;5599;52.210;21.046;2022-10-26T07:47:09;19.20;;;15.87;;
11090;SDS011;5599;52.210;21.046;2022-10-26T07:49:38;20.00;;;15.37;;
11090;SDS011;5599;52.210;21.046;2022-10-26T07:52:08;16.77;;;14.27;;
11090;SDS011;5599;52.210;21.046;2022-10-26T07:54:37;19.00;;;13.77;;
11090;SDS011;5599;52.210;21.046;2022-10-26T07:57:08;18.27;;;13.50;;
11090;SDS011;5599;52.210;21.046;2022-10-26T07:59:37;18.83;;;16.57;;
11090;SDS011;5599;52.210;21.046;2022-10-26T08:02:07;22.97;;;15.87;;
11090;SDS011;5599;52.210;21.046;2022-10-26T08:04:37;21.67;;;17.63;;
11090;SDS011;5599;52.210;21.046;2022-10-26T08:07:06;23.63;;;17.87;;
11090;SDS011;5599;52.210;21.046;2022-10-26T08:09:36;18.17;;;15.77;;
11090;SDS011;5599;52.210;21.046;2022-10-26T08:12:07;23.37;;;18.23;;
11090;SDS011;5599;52.210;21.046;2022-10-26T08:14:36;24.43;;;17.83;;
11090;SDS011;5599;52.210;21.046;2022-10-26T08:17:05;17.80;;;15.87;;
11090;SDS011;5599;52.210;21.046;2022-10-26T08:19:34;46.47;;;18.10;;
11090;SDS011;5599;52.210;21.046;2022-10-26T08:22:04;17.87;;;15.17;;
11090;SDS011;5599;52.210;21.046;2022-10-26T08:24:34;18.70;;;14.87;;
11090;SDS011;5599;52.210;21.046;2022-10-26T08:27:04;19.80;;;14.53;;
11090;SDS011;5599;52.210;21.046;2022-10-26T08:29:35;17.37;;;13.47;;
11090;SDS011;5599;52.210;21.046;2022-10-26T08:32:05;14.60;;;12.73;;
11090;SDS011;5599;52.210;21.046;2022-10-26T08:34:34;17.93;;;13.67;;
11090;SDS011;5599;52.210;21.046;2022-10-26T08:37:03;14.77;;;13.17;;
11090;SDS011;5599;52.210;21.046;2022-10-26T08:39:33;16.43;;;13.33;;
11090;SDS011;5599;52.210;21.046;2022-10-26T08:42:03;19.37;;;13.77;;
11090;SDS011;5599;52.210;21.046;2022-10-26T08:44:41;15.70;;;12.93;;
11090;SDS011;5599;52.210;21.046;2022-10-26T08:47:15;16.97;;;13.87;;
11090;SDS011;5599;52.210;21.046;2022-10-26T08:49:49;18.07;;;15.70;;
11090;SDS011;5599;52.210;21.046;2022-10-26T08:52:22;17.40;;;15.60;;
11090;SDS011;5599;52.210;21.046;2022-10-26T08:54:56;19.73;;;17.70;;
11090;SDS011;5599;52.210;21.046;2022-10-26T08:57:29;20.10;;;17.23;;
11090;SDS011;5599;52.210;21.046;2022-10-26T09:00:06;25.57;;;19.60;;
11090;SDS011;5599;52.210;21.046;2022-10-26T09:02:41;21.77;;;19.30;;
11090;SDS011;5599;52.210;21.046;2022-10-26T09:05:13;22.93;;;17.97;;
11090;SDS011;5599;52.210;21.046;2022-10-26T09:07:49;22.73;;;16.93;;
11090;SDS011;5599;52.210;21.046;2022-10-26T09:10:32;17.70;;;15.43;;
11090;SDS011;5599;52.210;21.046;2022-10-26T09:13:10;16.97;;;15.17;;
11090;SDS011;5599;52.210;21.046;2022-10-26T09:15:56;17.37;;;14.73;;
11090;SDS011;5599;52.210;21.046;2022-10-26T09:18:32;20.27;;;15.17;;
11090;SDS011;5599;52.210;21.046;2022-10-26T09:21:13;19.53;;;14.07;;
11090;SDS011;5599;52.210;21.046;2022-10-26T09:23:52;18.03;;;15.70;;
11090;SDS011;5599;52.210;21.046;2022-10-26T09:26:31;20.83;;;14.17;;
11090;SDS011;5599;52.210;21.046;2022-10-26T09:29:05;17.00;;;14.17;;
11090;SDS011;5599;52.210;21.046;2022-10-26T09:31:41;25.50;;;14.60;;
11090;SDS011;5599;52.210;21.046;2022-10-26T09:34:15;21.57;;;15.03;;
11090;SDS011;5599;52.210;21.046;2022-10-26T09:36:52;17.03;;;15.27;;
11090;SDS011;5599;52.210;21.046;2022-10-26T09:39:25;17.33;;;14.27;;
11090;SDS011;5599;52.210;21.046;2022-10-26T09:42:05;22.93;;;16.23;;
11090;SDS011;5599;52.210;21.046;2022-10-26T09:44:43;18.30;;;16.40;;
11090;SDS011;5599;52.210;21.046;2022-10-26T09:47:24;18.10;;;15.73;;
11090;SDS011;5599;52.210;21.046;2022-10-26T09:50:00;18.10;;;15.40;;
11090;SDS011;5599;52.210;21.046;2022-10-26T09:52:43;19.23;;;15.10;;
11090;SDS011;5599;52.210;21.046;2022-10-26T09:55:12;23.27;;;14.23;;
11090;SDS011;5599;52.210;21.046;2022-10-26T09:57:43;14.40;;;12.90;;
11090;SDS011;5599;52.210;21.046;2022-10-26T10:00:14;14.73;;;13.20;;
11090;SDS011;5599;52.210;21.046;2022-10-26T10:02:48;15.60;;;12.07;;
11090;SDS011;5599;52.210;21.046;2022-10-26T10:05:23;12.43;;;11.13;;
11090;SDS011;5599;52.210;21.046;2022-10-26T10:08:18;13.40;;;11.53;;
11090;SDS011;5599;52.210;21.046;2022-10-26T10:10:55;17.47;;;11.10;;
11090;SDS011;5599;52.210;21.046;2022-10-26T10:13:28;13.90;;;11.00;;
11090;SDS011;5599;52.210;21.046;2022-10-26T10:16:04;18.73;;;11.67;;
11090;SDS011;5599;52.210;21.046;2022-10-26T10:18:39;13.47;;;10.93;;
11090;SDS011;5599;52.210;21.046;2022-10-26T10:21:09;12.23;;;10.87;;
11090;SDS011;5599;52.210;21.046;2022-10-26T10:23:46;12.63;;;11.27;;
11090;SDS011;5599;52.210;21.046;2022-10-26T10:26:18;12.50;;;9.63;;
11090;SDS011;5599;52.210;21.046;2022-10-26T10:28:55;14.83;;;11.33;;
11090;SDS011;5599;52.210;21.046;2022-10-26T10:31:26;13.07;;;11.43;;
11090;SDS011;5599;52.210;21.046;2022-10-26T10:33:58;12.17;;;10.83;;
11090;SDS011;5599;52.210;21.046;2022-10-26T10:36:42;14.73;;;11.13;;
11090;SDS011;5599;52.210;21.046;2022-10-26T10:39:20;16.03;;;11.67;;
11090;SDS011;5599;52.210;21.046;2022-10-26T10:42:04;13.93;;;11.87;;
11090;SDS011;5599;52.210;21.046;2022-10-26T10:44:41;14.87;;;11.73;;
11090;SDS011;5599;52.210;21.046;2022-10-26T10:47:17;12.80;;;11.37;;
11090;SDS011;5599;52.210;21.046;2022-10-26T10:49:54;15.07;;;11.37;;
11090;SDS011;5599;52.210;21.046;2022-10-26T10:52:28;15.97;;;11.83;;
11090;SDS011;5599;52.210;21.046;2022-10-26T10:55:02;15.67;;;12.53;;
11090;SDS011;5599;52.210;21.046;2022-10-26T10:57:55;16.80;;;12.50;;
11090;SDS011;5599;52.210;21.046;2022-10-26T11:00:36;11.33;;;9.97;;
11090;SDS011;5599;52.210;21.046;2022-10-26T11:03:21;12.63;;;11.33;;
11090;SDS011;5599;52.210;21.046;2022-10-26T11:06:04;13.93;;;12.00;;
11090;SDS011;5599;52.210;21.046;2022-10-26T11:08:40;16.23;;;11.67;;
11090;SDS011;5599;52.210;21.046;2022-10-26T11:11:15;16.13;;;11.53;;
11090;SDS011;5599;52.210;21.046;2022-10-26T11:13:49;16.37;;;11.60;;
11090;SDS011;5599;52.210;21.046;2022-10-26T11:16:23;13.03;;;11.60;;
11090;SDS011;5599;52.210;21.046;2022-10-26T11:18:58;12.33;;;11.07;;
11090;SDS011;5599;52.210;21.046;2022-10-26T11:21:33;12.57;;;11.27;;
11090;SDS011;5599;52.210;21.046;2022-10-26T11:24:09;12.90;;;9.97;;
11090;SDS011;5599;52.210;21.046;2022-10-26T11:26:43;12.97;;;9.77;;
11090;SDS011;5599;52.210;21.046;2022-10-26T11:29:21;11.33;;;10.00;;
11090;SDS011;5599;52.210;21.046;2022-10-26T11:32:03;15.83;;;10.87;;
11090;SDS011;5599;52.210;21.046;2022-10-26T11:34:40;11.53;;;10.20;;
11090;SDS011;5599;52.210;21.046;2022-10-26T11:37:18;15.53;;;10.97;;
11090;SDS011;5599;52.210;21.046;2022-10-26T11:40:00;14.33;;;11.83;;
11090;SDS011;5599;52.210;21.046;2022-10-26T11:42:32;13.00;;;11.07;;
11090;SDS011;5599;52.210;21.046;2022-10-26T11:45:10;13.47;;;12.07;;
11090;SDS011;5599;52.210;21.046;2022-10-26T11:47:47;16.27;;;12.90;;
11090;SDS011;5599;52.210;21.046;2022-10-26T11:50:21;13.60;;;12.17;;
11090;SDS011;5599;52.210;21.046;2022-10-26T11:52:55;13.90;;;12.03;;
11090;SDS011;5599;52.210;21.046;2022-10-26T11:55:28;14.90;;;12.03;;
11090;SDS011;5599;52.210;21.046;2022-10-26T11:57:58;12.90;;;11.53;;
11090;SDS011;5599;52.210;21.046;2022-10-26T12:00:29;15.70;;;11.73;;
11090;SDS011;5599;52.210;21.046;2022-10-26T12:03:01;14.77;;;11.53;;
11090;SDS011;5599;52.210;21.046;2022-10-26T12:05:41;13.27;;;9.80;;
11090;SDS011;5599;52.210;21.046;2022-10-26T12:08:17;11.87;;;10.67;;
11090;SDS011;5599;52.210;21.046;2022-10-26T12:10:56;12.93;;;10.27;;
11090;SDS011;5599;52.210;21.046;2022-10-26T12:13:34;12.50;;;10.87;;
11090;SDS011;5599;52.210;21.046;2022-10-26T12:16:09;12.63;;;10.80;;
11090;SDS011;5599;52.210;21.046;2022-10-26T12:18:49;12.23;;;10.93;;
11090;SDS011;5599;52.210;21.046;2022-10-26T12:21:24;11.80;;;10.57;;
11090;SDS011;5599;52.210;21.046;2022-10-26T12:23:58;12.40;;;11.10;;
11090;SDS011;5599;52.210;21.046;2022-10-26T12:29:27;16.80;;;11.47;;
11090;SDS011;5599;52.210;21.046;2022-10-26T12:31:58;14.20;;;11.57;;
11090;SDS011;5599;52.210;21.046;2022-10-26T12:37:33;14.63;;;11.67;;
11090;SDS011;5599;52.210;21.046;2022-10-26T12:52:39;11.95;;;10.73;;
11090;SDS011;5599;52.210;21.046;2022-10-26T13:01:53;14.67;;;11.17;;
11090;SDS011;5599;52.210;21.046;2022-10-26T13:07:47;12.87;;;10.47;;
11090;SDS011;5599;52.210;21.046;2022-10-26T13:10:18;13.27;;;11.27;;
11090;SDS011;5599;52.210;21.046;2022-10-26T13:12:52;12.83;;;10.73;;
11090;SDS011;5599;52.210;21.046;2022-10-26T13:15:25;12.90;;;11.30;;
11090;SDS011;5599;52.210;21.046;2022-10-26T13:18:00;15.60;;;11.53;;
11090;SDS011;5599;52.210;21.046;2022-10-26T13:20:36;14.90;;;11.00;;
11090;SDS011;5599;52.210;21.046;2022-10-26T13:23:23;14.20;;;11.43;;
11090;SDS011;5599;52.210;21.046;2022-10-26T13:26:02;15.07;;;10.97;;
11090;SDS011;5599;52.210;21.046;2022-10-26T13:28:47;11.47;;;10.27;;
11090;SDS011;5599;52.210;21.046;2022-10-26T13:34:26;13.60;;;10.00;;
11090;SDS011;5599;52.210;21.046;2022-10-26T13:37:06;12.57;;;9.90;;
11090;SDS011;5599;52.210;21.046;2022-10-26T13:39:46;11.27;;;9.13;;
11090;SDS011;5599;52.210;21.046;2022-10-26T13:42:23;11.87;;;9.20;;
11090;SDS011;5599;52.210;21.046;2022-10-26T13:44:57;16.27;;;10.37;;
11090;SDS011;5599;52.210;21.046;2022-10-26T13:47:35;15.93;;;10.80;;
11090;SDS011;5599;52.210;21.046;2022-10-26T13:50:13;13.07;;;9.87;;
11090;SDS011;5599;52.210;21.046;2022-10-26T13:52:45;14.33;;;10.47;;
11090;SDS011;5599;52.210;21.046;2022-10-26T13:55:19;16.20;;;10.23;;
11090;SDS011;5599;52.210;21.046;2022-10-26T13:58:07;15.67;;;10.63;;
11090;SDS011;5599;52.210;21.046;2022-10-26T14:01:01;11.83;;;9.97;;
11090;SDS011;5599;52.210;21.046;2022-10-26T14:03:32;11.47;;;9.37;;
11090;SDS011;5599;52.210;21.046;2022-10-26T14:06:03;14.83;;;9.27;;
11090;SDS011;5599;52.210;21.046;2022-10-26T14:08:34;12.30;;;8.80;;
11090;SDS011;5599;52.210;21.046;2022-10-26T14:11:04;13.77;;;8.77;;
11090;SDS011;5599;52.210;21.046;2022-10-26T14:13:33;10.80;;;9.23;;
11090;SDS011;5599;52.210;21.046;2022-10-26T14:16:09;17.30;;;9.53;;
11090;SDS011;5599;52.210;21.046;2022-10-26T14:18:44;12.47;;;9.33;;
11090;SDS011;5599;52.210;21.046;2022-10-26T14:21:15;10.60;;;8.73;;
11090;SDS011;5599;52.210;21.046;2022-10-26T14:23:47;12.57;;;9.23;;
11090;SDS011;5599;52.210;21.046;2022-10-26T14:26:19;14.30;;;8.20;;
11090;SDS011;5599;52.210;21.046;2022-10-26T14:28:50;11.83;;;8.10;;
11090;SDS011;5599;52.210;21.046;2022-10-26T14:31:25;12.27;;;8.70;;
11090;SDS011;5599;52.210;21.046;2022-10-26T14:33:56;11.67;;;8.60;;
11090;SDS011;5599;52.210;21.046;2022-10-26T14:36:28;12.40;;;9.10;;
11090;SDS011;5599;52.210;21.046;2022-10-26T14:39:04;11.57;;;8.17;;
11090;SDS011;5599;52.210;21.046;2022-10-26T14:41:35;11.20;;;8.43;;
11090;SDS011;5599;52.210;21.046;2022-10-26T14:44:13;11.70;;;9.23;;
11090;SDS011;5599;52.210;21.046;2022-10-26T14:46:47;14.50;;;10.63;;
11090;SDS011;5599;52.210;21.046;2022-10-26T14:49:17;15.40;;;9.33;;
11090;SDS011;5599;52.210;21.046;2022-10-26T14:51:49;11.70;;;10.33;;
11090;SDS011;5599;52.210;21.046;2022-10-26T14:54:25;11.07;;;9.07;;
11090;SDS011;5599;52.210;21.046;2022-10-26T14:56:56;11.47;;;9.17;;
11090;SDS011;5599;52.210;21.046;2022-10-26T14:59:29;13.33;;;9.57;;
11090;SDS011;5599;52.210;21.046;2022-10-26T15:02:03;12.17;;;9.83;;
11090;SDS011;5599;52.210;21.046;2022-10-26T15:04:55;15.33;;;10.17;;
11090;SDS011;5599;52.210;21.046;2022-10-26T15:07:33;11.10;;;9.57;;
11090;SDS011;5599;52.210;21.046;2022-10-26T15:10:04;16.07;;;10.23;;
11090;SDS011;5599;52.210;21.046;2022-10-26T15:12:34;11.97;;;9.87;;
11090;SDS011;5599;52.210;21.046;2022-10-26T15:15:09;12.67;;;10.43;;
11090;SDS011;5599;52.210;21.046;2022-10-26T15:17:50;12.00;;;9.60;;
11090;SDS011;5599;52.210;21.046;2022-10-26T15:20:22;11.67;;;10.47;;
11090;SDS011;5599;52.210;21.046;2022-10-26T15:22:53;11.47;;;9.70;;
11090;SDS011;5599;52.210;21.046;2022-10-26T15:25:24;13.77;;;10.07;;
11090;SDS011;5599;52.210;21.046;2022-10-26T15:28:07;16.27;;;10.47;;
11090;SDS011;5599;52.210;21.046;2022-10-26T15:30:37;11.17;;;8.93;;
11090;SDS011;5599;52.210;21.046;2022-10-26T15:33:18;12.07;;;9.50;;
11090;SDS011;5599;52.210;21.046;2022-10-26T15:35:49;13.13;;;10.33;;
11090;SDS011;5599;52.210;21.046;2022-10-26T15:38:18;11.83;;;9.70;;
11090;SDS011;5599;52.210;21.046;2022-10-26T15:40:48;11.67;;;9.60;;